Ottumwa, Iowa
Current Conditions -  °F | °C
As of 9:53 AM on Saturday 20 Dec 2014 (Local Time) from KOTM Reporting Station
Haze Haze  
Wind Chill: 26°   Ceiling: 500
Heat Index: 32°   Visibility: 1.5mi
Dew Point: 30°   Wind: 7mph
Humidity: 92%   Direction: 160°SSE
Pressure: 30.2"   Gusts: NA
Location:  41.02°N, 92.41°W
Report Text: KOTM 201553Z AUTO 16006KT 1 1/2SM BR OVC005 00/M01 A3020 RMK AO2 SNB43E52 CIG 004V007 SLP236 P0000 I1000 T00001011
Loading
Personal Weather Stations






























Interactive Weather Map New forecast layout! Learn more

10-Day Weather Forecast

Advertisements
Track Severe Weather on mobile